Flight Track Log - Related Links

Times and Time Zones

All times are in EDT time to prevent confusion due to time zone crossing. See the UAL4115 flight status page for this flight to view local times or setup timezone preferences in your user account.

Time Position Orientation Groundspeed Altitude Reporting Facility
EDT Latitude Longitude Course Direction KTS MPH feet Rate Location/Type
Mon 08:19:15 AM 25.9683 -99.8542 48° Northeast 510 587 35,000  Level Houston Center
Mon 08:20:16 AM 26.0650 -99.7364 48° Northeast 512 589 35,000  Level Houston Center
Mon 08:21:17 AM 26.1628 -99.6228 46° Northeast 512 589 35,000  Level Houston Center
Mon 08:22:19 AM 26.2636 -99.5131 44° Northeast 511 588 35,000  Level Houston Center
Mon 08:23:21 AM 26.3689 -99.4083 42° Northeast 509 586 35,000  Level Houston Center
Mon 08:24:22 AM 26.4742 -99.3067 41° Northeast 503 579 35,000  Level Houston Center
Mon 08:25:24 AM 26.5792 -99.2042 41° Northeast 502 578 35,000  Level Houston Center
Mon 08:26:25 AM 26.7050 -99.0800 41° Northeast 504 580 35,000  Level Houston Center
Mon 08:27:27 AM 26.8081 -98.9761 42° Northeast 502 578 35,000  Level Houston Center
Mon 08:28:28 AM 26.9136 -98.8719 41° Northeast 506 582 35,000  Level Houston Center
Mon 08:29:30 AM 27.0186 -98.7678 41° Northeast 507 583 35,000  Level Houston Center
Mon 08:30:31 AM 27.1233 -98.6633 42° Northeast 509 586 35,000  Level Houston Center
Mon 08:31:33 AM 27.2275 -98.5592 42° Northeast 507 583 35,000  Level Houston Center
Mon 08:32:34 AM 27.3528 -98.4325 42° Northeast 509 586 35,000  Level Houston Center
Mon 08:33:36 AM 27.4575 -98.3269 42° Northeast 509 586 35,000  Level Houston Center
Mon 08:34:38 AM 27.5622 -98.2217 42° Northeast 508 585 35,000  Level Houston Center
Mon 08:35:39 AM 27.6669 -98.1156 42° Northeast 508 585 35,000  Level Houston Center
Mon 08:36:41 AM 27.7725 -98.0097 42° Northeast 509 586 35,000  Level Houston Center
Mon 08:37:42 AM 27.8772 -97.9042 42° Northeast 506 582 35,000  Level Houston Center
Mon 08:38:44 AM 27.9803 -97.7975 42° Northeast 504 580 35,000  Level Houston Center
Mon 08:39:46 AM 28.1008 -97.6742 42° Northeast 501 577 35,000  Level Houston Center
Mon 08:40:48 AM 28.2044 -97.5694 42° Northeast 500 575 35,000  Level Houston Center
Mon 08:41:49 AM 28.3069 -97.4636 42° Northeast 498 573 35,000  Level Houston Center
Mon 08:42:51 AM 28.4086 -97.3597 42° Northeast 494 568 35,000  Level Houston Center
Mon 08:43:52 AM 28.5092 -97.2544 43° Northeast 492 566 35,000 -390 Level Houston Center
Mon 08:44:54 AM 28.6114 -97.1506 42° Northeast 493 567 34,200 -1,839 Descending Houston Center
Mon 08:45:56 AM 28.7303 -97.0269 42° Northeast 486 559 31,200 -2,634 Descending Houston Center
Mon 08:46:57 AM 28.8264 -96.9267 42° Northeast 472 543 28,800 -2,390 Descending Houston Center
Mon 08:47:59 AM 28.9211 -96.8272 43° Northeast 464 534 26,300 -2,419 Descending Houston Center
Mon 08:49:01 AM 29.0169 -96.7267 43° Northeast 471 542 23,800 -2,390 Descending Houston Center
Mon 08:50:02 AM 29.1092 -96.6283 43° Northeast 462 532 21,400 -2,293 Descending Houston Center
Mon 08:51:04 AM 29.1969 -96.5367 42° Northeast 435 501 19,100 -2,419 Descending Houston Center
Mon 08:52:06 AM 29.2964 -96.4314 43° Northeast 411 473 16,400 -2,513 Descending Houston Center
Mon 08:53:01 AM 29.3761 -96.3461 43° Northeast 408 470 14,200 -2,224 Descending Houston Center
Mon 08:54:02 AM 29.4553 -96.2631 42° Northeast 377 434 12,100 -1,082 Descending Houston Center
Mon 08:55:03 AM 29.5261 -96.1856 44° Northeast 343 395 12,000 -49 Descending Houston Center
Mon 08:56:04 AM 29.5794 -96.0956 56° Northeast 342 394 12,000  Level Houston Center
Mon 08:57:05 AM 29.6333 -95.9933 59° Northeast 352 405 12,000 -146 Level Houston Center
Mon 08:58:07 AM 29.6817 -95.8967 60° Northeast 347 399 11,700 -488 Descending Houston Center
Mon 08:59:08 AM 29.7297 -95.7997 60° Northeast 344 396 11,000 -689 Descending Houston Center
Mon 09:00:09 AM 29.7744 -95.7128 59° Northeast 283 326 10,300 -1,180 Descending Houston Center
Mon 09:01:10 AM 29.8119 -95.6361 61° Northeast 277 319 8,600 -1,721 Descending Houston Center
Mon 09:02:11 AM 29.8508 -95.5569 60° Northeast 267 307 6,800 -1,268 Descending Houston Center
Mon 09:03:13 AM 29.8867 -95.4875 59° Northeast 248 285 6,000 -356 Descending Houston Center
Mon 09:04:26 AM 29.8967 -95.4008 82° East 263 303 6,000  Level Houston Center
Mon 09:05:28 AM 29.8964 -95.3131 90° East 273 314 6,000 -103 Level Houston Center
Mon 09:06:22 AM 29.8956 -95.2189 91° East 275 316 5,800 -991 Descending Houston Center
Mon 09:07:17 AM 29.8967 -95.1394 89° East 265 305 4,200 -1,759 Descending Houston Center
Mon 09:08:18 AM 29.9000 -95.0617 87° East 248 285 2,400 -1,658 Descending Houston Center
Mon 09:08:33 AM 29.9114 -95.0478 47° Northeast 272 313 2,100 -393 Descending Houston Center
Mon 09:09:19 AM 29.9508 -95.0675 337° Northwest 227 261 2,000 -98 Descending Houston Center
Mon 09:09:34 AM 29.9611 -95.0811 311° West 242 278 2,000 98 Level Houston Center
Mon 09:10:20 AM 29.9800 -95.1314 293° West 230 265 2,100 97 Climbing Houston Center
Mon 09:10:36 AM 29.9786 -95.1475 264° West 229 264 2,100 -295 Level Houston Center
Mon 09:11:21 AM 29.9764 -95.2067 268° West 217 250 1,800 -387 Descending Houston Center
Mon 09:11:38 AM 29.9775 -95.2167 277° West 220 253 1,700 -885 Descending Houston Center
Mon 09:12:22 AM 29.9772 -95.2619 270° West 159 183 900 -984 Descending Houston Center
Mon 09:12:39 AM 29.9781 -95.2697 277° West 184 212 700 -456 Descending Houston Center
Mon 09:13:41 AM 29.9783 -95.3239 270° West 170 196 300 -387 Descending Houston Center

Login

Don't have an account? Register now (free) for customized features, flight alerts, and more!